Time;durP1;ratioP1;P1;durP2;ratioP2;P2;SDS_P1;SDS_P2;PMS_P1;PMS_P2;Temp;Humidity;BMP_temperature;BMP_pressure;BME280_temperature;BME280_humidity;BME280_pressure;Samples;Min_cycle;Max_cycle;Signal;HPM_P1;HPM_P2
2024/01/14 00:00:58;;;;;;;61.87;27.30;;;2.00;99.90;;;;;;5093758;28;20527;-84
2024/01/14 00:03:23;;;;;;;66.83;29.13;;;2.00;99.90;;;;;;5093922;28;20168;-83
2024/01/14 00:05:49;;;;;;;66.97;30.03;;;1.90;99.90;;;;;;5094192;28;20270;-84
2024/01/14 00:08:14;;;;;;;62.80;28.73;;;2.00;99.90;;;;;;5095193;28;20175;-84
2024/01/14 00:10:40;;;;;;;61.17;30.00;;;2.10;99.90;;;;;;5093058;28;20640;-84
2024/01/14 00:13:05;;;;;;;62.23;27.97;;;2.00;99.90;;;;;;5094147;28;20211;-82
2024/01/14 00:15:31;;;;;;;69.43;29.80;;;2.00;99.90;;;;;;5093747;28;20171;-83
2024/01/14 00:17:57;;;;;;;61.93;28.53;;;2.00;99.90;;;;;;5093889;28;20214;-83
2024/01/14 00:20:22;;;;;;;68.70;28.63;;;2.10;99.90;;;;;;5093685;28;20171;-83
2024/01/14 00:22:48;;;;;;;67.67;29.53;;;2.10;99.90;;;;;;5093601;28;20171;-84
2024/01/14 00:25:13;;;;;;;60.97;28.17;;;2.10;99.90;;;;;;5093935;28;20179;-84
2024/01/14 00:27:39;;;;;;;61.13;27.90;;;2.00;99.90;;;;;;5092335;28;20278;-85
2024/01/14 00:30:06;;;;;;;64.23;28.90;;;2.00;99.90;;;;;;5092136;28;20690;-85
2024/01/14 00:32:32;;;;;;;61.90;28.07;;;1.90;99.90;;;;;;5091996;28;20681;-83
2024/01/14 00:34:57;;;;;;;62.13;28.40;;;2.00;99.90;;;;;;5091910;28;20172;-84
2024/01/14 00:37:23;;;;;;;60.83;27.73;;;2.00;99.90;;;;;;5093546;28;20204;-84
2024/01/14 00:39:49;;;;;;;60.73;27.63;;;2.00;99.90;;;;;;5093422;28;20160;-83
2024/01/14 00:42:14;;;;;;;56.03;26.30;;;2.10;99.90;;;;;;5093452;28;20217;-83
2024/01/14 00:44:43;;;;;;;63.27;27.70;;;2.00;99.90;;;;;;5091972;28;20172;-83
2024/01/14 00:47:09;;;;;;;61.37;28.07;;;2.00;99.90;;;;;;5093449;28;20222;-84
2024/01/14 00:49:34;;;;;;;61.03;28.30;;;2.00;99.90;;;;;;5092976;28;20624;-83
2024/01/14 00:52:00;;;;;;;67.40;28.07;;;2.00;99.90;;;;;;5091667;28;20252;-84
2024/01/14 00:54:25;;;;;;;62.63;28.00;;;1.90;99.90;;;;;;5093545;28;20175;-83
2024/01/14 00:56:51;;;;;;;64.57;28.47;;;1.90;99.90;;;;;;5093562;28;20179;-83
2024/01/14 00:59:17;;;;;;;57.23;26.67;;;2.00;99.90;;;;;;5097275;28;20635;-84
2024/01/14 01:01:43;;;;;;;56.93;26.47;;;2.00;99.90;;;;;;5097096;28;20192;-84
2024/01/14 01:04:08;;;;;;;69.90;29.33;;;2.00;99.90;;;;;;5096668;28;20623;-82
2024/01/14 01:06:34;;;;;;;61.10;27.87;;;2.10;99.90;;;;;;5096928;28;20168;-84
2024/01/14 01:09:00;;;;;;;61.93;28.57;;;2.00;99.90;;;;;;5097126;28;20164;-83
2024/01/14 01:11:26;;;;;;;63.00;27.50;;;2.10;99.90;;;;;;5095866;28;20643;-82
2024/01/14 01:13:52;;;;;;;58.13;26.77;;;2.10;99.90;;;;;;5096935;28;20203;-83
2024/01/14 01:16:17;;;;;;;61.83;27.90;;;2.00;99.90;;;;;;5095437;28;20204;-84
2024/01/14 01:18:43;;;;;;;57.97;28.13;;;2.00;99.90;;;;;;5096329;28;20251;-83
2024/01/14 01:21:09;;;;;;;61.63;27.20;;;2.00;99.90;;;;;;5096580;28;20174;-83
2024/01/14 01:23:34;;;;;;;60.53;27.37;;;2.00;99.90;;;;;;5096433;28;20508;-83
2024/01/14 01:26:00;;;;;;;61.83;26.93;;;2.00;99.90;;;;;;5096421;28;20172;-83
2024/01/14 01:28:26;;;;;;;60.93;28.90;;;2.10;99.90;;;;;;5096231;28;20211;-83
2024/01/14 01:30:52;;;;;;;57.47;27.57;;;2.10;99.90;;;;;;5095074;28;20283;-83
2024/01/14 01:33:17;;;;;;;61.40;27.40;;;2.10;99.90;;;;;;5096066;28;20211;-83
2024/01/14 01:35:43;;;;;;;65.47;28.57;;;2.20;99.90;;;;;;5096235;28;20172;-84
2024/01/14 01:38:08;;;;;;;61.33;28.33;;;2.20;99.90;;;;;;5097749;28;20167;-83
2024/01/14 01:40:34;;;;;;;68.13;28.87;;;2.30;99.90;;;;;;5096734;28;20533;-83
2024/01/14 01:43:00;;;;;;;58.23;27.60;;;2.20;99.90;;;;;;5096377;28;20179;-82
2024/01/14 01:45:25;;;;;;;62.83;28.07;;;2.20;99.90;;;;;;5096162;28;20168;-83
2024/01/14 01:47:51;;;;;;;56.43;27.30;;;2.20;99.90;;;;;;5094715;28;20164;-82
2024/01/14 01:50:17;;;;;;;55.30;26.37;;;2.10;99.90;;;;;;5096072;28;20250;-84
2024/01/14 01:52:43;;;;;;;59.33;26.10;;;2.00;99.90;;;;;;5096216;28;20684;-84
2024/01/14 01:55:10;;;;;;;56.63;26.33;;;2.10;99.90;;;;;;5095035;28;20167;-83
2024/01/14 01:57:37;;;;;;;63.50;27.07;;;2.00;99.90;;;;;;5096503;28;20217;-83
2024/01/14 02:00:03;;;;;;;60.83;26.27;;;2.10;99.90;;;;;;5096169;28;20259;-83
2024/01/14 02:02:29;;;;;;;62.47;27.43;;;2.10;99.90;;;;;;5095605;28;20201;-84
2024/01/14 02:04:55;;;;;;;58.00;26.20;;;2.00;99.90;;;;;;5077680;28;20262;-83
2024/01/14 02:07:20;;;;;;;56.90;27.60;;;2.10;99.90;;;;;;5095930;28;20172;-83
2024/01/14 02:09:47;;;;;;;56.87;28.13;;;2.10;99.90;;;;;;5094829;28;20661;-82
2024/01/14 02:12:12;;;;;;;60.37;26.13;;;2.10;99.90;;;;;;5095683;28;20199;-83
2024/01/14 02:14:38;;;;;;;56.90;27.23;;;2.10;99.90;;;;;;5095531;28;20691;-84
2024/01/14 02:17:04;;;;;;;67.30;27.67;;;2.10;99.90;;;;;;5095272;28;20172;-83
2024/01/14 02:19:29;;;;;;;55.40;25.30;;;2.10;99.90;;;;;;5095464;28;20317;-84
2024/01/14 02:22:08;;;;;;;59.33;25.83;;;2.10;99.90;;;;;;5094339;28;20171;-84
2024/01/14 02:24:35;;;;;;;56.93;25.43;;;2.00;99.90;;;;;;5095566;28;20263;-84
2024/01/14 02:27:01;;;;;;;57.83;26.57;;;2.00;99.90;;;;;;5095351;28;20172;-84
2024/01/14 02:29:28;;;;;;;56.37;26.37;;;2.00;99.90;;;;;;5095221;28;20223;-84
2024/01/14 02:31:54;;;;;;;60.57;26.57;;;1.70;99.90;;;;;;5094688;28;20249;-84
2024/01/14 02:34:20;;;;;;;57.40;25.17;;;1.80;99.90;;;;;;5095398;28;20168;-83
2024/01/14 02:36:46;;;;;;;58.40;26.13;;;1.90;99.90;;;;;;5095314;28;20176;-83
2024/01/14 02:39:11;;;;;;;64.10;26.40;;;1.80;99.90;;;;;;5095351;28;20638;-83
2024/01/14 02:41:37;;;;;;;57.30;25.07;;;1.80;99.90;;;;;;5095160;28;20213;-82
2024/01/14 02:44:03;;;;;;;59.53;27.13;;;1.80;99.90;;;;;;5094955;28;20164;-83
2024/01/14 02:46:29;;;;;;;58.83;26.97;;;1.80;99.90;;;;;;5094465;28;20202;-83
2024/01/14 02:48:55;;;;;;;55.67;24.37;;;1.90;99.90;;;;;;5094891;28;20175;-82
2024/01/14 02:51:21;;;;;;;58.17;27.23;;;2.00;99.90;;;;;;5094682;28;20179;-82
2024/01/14 02:53:46;;;;;;;54.90;26.17;;;1.90;99.90;;;;;;5094787;28;20180;-83
2024/01/14 02:56:12;;;;;;;62.83;26.73;;;1.90;99.90;;;;;;5094727;28;20301;-83
2024/01/14 02:58:38;;;;;;;59.40;27.23;;;1.80;99.90;;;;;;5094818;28;20631;-82
2024/01/14 03:01:04;;;;;;;61.27;26.63;;;1.80;99.90;;;;;;5094178;28;20192;-83
2024/01/14 03:03:30;;;;;;;58.07;26.03;;;1.90;99.90;;;;;;5094576;28;20178;-84
2024/01/14 03:05:55;;;;;;;55.93;25.33;;;1.80;99.90;;;;;;5093375;28;20199;-83
2024/01/14 03:08:21;;;;;;;60.83;27.17;;;1.80;99.90;;;;;;5093449;28;20663;-84
2024/01/14 03:10:47;;;;;;;59.57;26.67;;;1.80;99.90;;;;;;5095627;28;20168;-84
2024/01/14 03:13:15;;;;;;;59.60;24.83;;;1.80;99.90;;;;;;5094724;28;20718;-84
2024/01/14 03:15:41;;;;;;;67.60;28.10;;;1.80;99.90;;;;;;5094087;28;20164;-83
2024/01/14 03:18:07;;;;;;;61.40;27.43;;;1.80;99.90;;;;;;5094570;28;20229;-83
2024/01/14 03:20:32;;;;;;;54.33;25.17;;;1.80;99.90;;;;;;5092929;28;20573;-83
2024/01/14 03:22:58;;;;;;;60.80;25.67;;;1.90;99.90;;;;;;5094225;28;20175;-83
2024/01/14 03:25:23;;;;;;;56.30;26.30;;;1.90;99.90;;;;;;5094069;28;20172;-84
2024/01/14 03:27:49;;;;;;;57.40;26.33;;;1.80;99.90;;;;;;5094191;28;20187;-84
2024/01/14 03:30:15;;;;;;;61.20;26.17;;;1.80;99.90;;;;;;5093558;28;20691;-84
2024/01/14 03:32:40;;;;;;;62.03;27.60;;;1.70;99.90;;;;;;5092777;28;20530;-84
2024/01/14 03:35:06;;;;;;;55.70;24.80;;;1.90;99.90;;;;;;5094204;28;20206;-85
2024/01/14 03:37:32;;;;;;;61.30;26.77;;;1.90;99.90;;;;;;5093104;28;20529;-84
2024/01/14 03:39:57;;;;;;;59.33;24.63;;;1.80;99.90;;;;;;5094076;28;20236;-84
2024/01/14 03:42:23;;;;;;;55.73;25.10;;;1.80;99.90;;;;;;5093998;28;20172;-84
2024/01/14 03:44:49;;;;;;;59.90;25.40;;;1.70;99.90;;;;;;5092491;28;20168;-83
2024/01/14 03:47:15;;;;;;;58.60;24.73;;;1.80;99.90;;;;;;5094306;28;20190;-83
2024/01/14 03:49:41;;;;;;;62.17;25.77;;;1.70;99.90;;;;;;5094247;28;20634;-83
2024/01/14 03:52:07;;;;;;;54.90;25.07;;;1.80;99.90;;;;;;5093865;28;20217;-84
2024/01/14 03:54:32;;;;;;;57.90;25.60;;;1.90;99.90;;;;;;5094161;28;20263;-83
2024/01/14 03:56:58;;;;;;;57.80;25.03;;;1.80;99.90;;;;;;5093499;28;20638;-82
2024/01/14 03:59:23;;;;;;;52.23;24.40;;;1.80;99.90;;;;;;5093838;28;20489;-83
2024/01/14 04:01:49;;;;;;;56.70;24.57;;;1.70;99.90;;;;;;5093792;28;20180;-84
2024/01/14 04:04:15;;;;;;;62.43;24.77;;;1.70;99.90;;;;;;5093587;28;20217;-84
2024/01/14 04:06:40;;;;;;;52.00;24.10;;;1.80;99.90;;;;;;5093604;28;20184;-84
2024/01/14 04:09:06;;;;;;;51.73;23.57;;;1.70;99.90;;;;;;5092538;28;20175;-84
2024/01/14 04:11:31;;;;;;;57.67;24.37;;;1.70;99.90;;;;;;5093677;28;20172;-84
2024/01/14 04:13:57;;;;;;;54.83;24.50;;;1.70;99.90;;;;;;5093179;28;20172;-84
2024/01/14 04:16:22;;;;;;;56.23;25.77;;;1.70;99.90;;;;;;5093627;28;20164;-83
2024/01/14 04:18:48;;;;;;;53.73;24.20;;;1.60;99.90;;;;;;5093371;28;20258;-84
2024/01/14 04:21:24;;;;;;;60.70;25.63;;;1.70;99.90;;;;;;5093547;28;20194;-83
2024/01/14 04:23:50;;;;;;;59.10;24.93;;;1.70;99.90;;;;;;5093508;28;20203;-83
2024/01/14 04:26:22;;;;;;;57.63;23.43;;;1.60;99.90;;;;;;5093544;28;20199;-84
2024/01/14 04:28:49;;;;;;;55.63;23.37;;;1.60;99.90;;;;;;5093223;28;20219;-83
2024/01/14 04:31:14;;;;;;;50.30;23.23;;;1.70;99.90;;;;;;5092382;28;20172;-83
2024/01/14 04:33:40;;;;;;;51.87;23.00;;;1.60;99.90;;;;;;5095075;28;20222;-83
2024/01/14 04:36:06;;;;;;;54.50;24.83;;;1.60;99.90;;;;;;5097604;28;20176;-83
2024/01/14 04:38:31;;;;;;;57.77;25.70;;;1.60;99.90;;;;;;5097454;28;20175;-83
2024/01/14 04:40:57;;;;;;;54.90;23.20;;;1.60;99.90;;;;;;5101142;28;20169;-84
2024/01/14 04:43:23;;;;;;;48.33;22.93;;;1.60;99.90;;;;;;5097655;28;20198;-84
2024/01/14 04:45:48;;;;;;;51.30;22.70;;;1.60;99.90;;;;;;5097423;28;20561;-83
2024/01/14 04:48:14;;;;;;;48.73;22.67;;;1.70;99.90;;;;;;5096238;28;20187;-84
2024/01/14 04:50:40;;;;;;;56.13;22.53;;;1.70;99.90;;;;;;5096027;28;20220;-83
2024/01/14 04:53:06;;;;;;;50.67;21.87;;;1.70;99.90;;;;;;5095906;28;20249;-83
2024/01/14 04:55:31;;;;;;;48.47;22.83;;;1.70;99.90;;;;;;5096832;28;20167;-83
2024/01/14 04:57:58;;;;;;;58.07;22.93;;;1.80;99.90;;;;;;5095784;28;20180;-83
2024/01/14 05:00:23;;;;;;;48.07;21.33;;;1.90;99.90;;;;;;5097119;28;20695;-83
2024/01/14 05:02:49;;;;;;;50.43;21.80;;;1.80;99.90;;;;;;5096907;28;20188;-83
2024/01/14 05:05:15;;;;;;;49.27;22.23;;;1.70;99.90;;;;;;5096260;28;20178;-83
2024/01/14 05:07:40;;;;;;;46.93;21.40;;;1.80;99.90;;;;;;5095314;28;20180;-83
2024/01/14 05:10:07;;;;;;;47.67;22.27;;;1.80;99.90;;;;;;5096303;28;20643;-83
2024/01/14 05:12:33;;;;;;;52.90;22.73;;;1.70;99.90;;;;;;5096277;28;20208;-83
2024/01/14 05:14:59;;;;;;;49.47;21.47;;;1.70;99.90;;;;;;5096613;28;20521;-83
2024/01/14 05:17:27;;;;;;;50.30;21.47;;;1.70;99.90;;;;;;5096866;28;20210;-84
2024/01/14 05:19:53;;;;;;;51.40;22.03;;;1.60;99.90;;;;;;5095496;28;20175;-84
2024/01/14 05:22:19;;;;;;;45.10;20.60;;;1.60;99.90;;;;;;5096413;28;20172;-83
2024/01/14 05:24:45;;;;;;;48.10;20.67;;;1.70;99.90;;;;;;5096182;28;20245;-83
2024/01/14 05:27:14;;;;;;;54.67;23.03;;;1.70;99.90;;;;;;5096409;28;20229;-83
2024/01/14 05:29:40;;;;;;;47.23;21.47;;;1.60;99.90;;;;;;5096262;28;20569;-84
2024/01/14 05:32:11;;;;;;;47.30;20.83;;;1.70;99.90;;;;;;5096339;28;20659;-83
2024/01/14 05:34:37;;;;;;;47.77;21.53;;;1.70;99.90;;;;;;5096394;28;20167;-82
2024/01/14 05:37:03;;;;;;;50.30;21.40;;;1.70;99.90;;;;;;5096540;28;20619;-83
2024/01/14 05:39:28;;;;;;;51.63;22.73;;;1.60;99.90;;;;;;5095823;28;20633;-83
2024/01/14 05:41:54;;;;;;;49.30;21.47;;;1.60;99.90;;;;;;5096532;28;20171;-85
2024/01/14 05:44:19;;;;;;;49.10;22.20;;;1.60;99.90;;;;;;5094917;28;20635;-84
2024/01/14 05:46:45;;;;;;;45.93;20.80;;;1.60;99.90;;;;;;5096334;28;20172;-84
2024/01/14 05:49:10;;;;;;;46.70;21.27;;;1.60;99.90;;;;;;5095988;28;20176;-85
2024/01/14 05:51:36;;;;;;;44.57;21.47;;;1.50;99.90;;;;;;5096602;28;20205;-84
2024/01/14 05:54:03;;;;;;;46.73;21.27;;;1.50;99.90;;;;;;5095482;28;20184;-85
2024/01/14 05:56:29;;;;;;;49.63;21.93;;;1.60;99.90;;;;;;5095927;28;20179;-83
2024/01/14 05:58:55;;;;;;;47.90;21.83;;;1.60;99.90;;;;;;5094324;28;20218;-84
2024/01/14 06:01:21;;;;;;;48.90;21.97;;;1.60;99.90;;;;;;5095037;28;20219;-84
2024/01/14 06:03:46;;;;;;;45.63;22.57;;;1.60;99.90;;;;;;5094744;28;20217;-84
2024/01/14 06:06:12;;;;;;;48.20;21.87;;;1.60;99.90;;;;;;5094516;28;20176;-83
2024/01/14 06:08:37;;;;;;;48.17;21.93;;;1.70;99.90;;;;;;5093831;28;20168;-83
2024/01/14 06:11:04;;;;;;;50.53;22.67;;;1.60;99.90;;;;;;5096789;28;20655;-83
2024/01/14 06:13:30;;;;;;;53.43;22.07;;;1.70;99.90;;;;;;5096727;28;20204;-83
2024/01/14 06:15:56;;;;;;;46.77;20.53;;;1.60;99.90;;;;;;5094676;28;20229;-83
2024/01/14 06:18:21;;;;;;;46.10;20.57;;;1.60;99.90;;;;;;5095695;28;20201;-83
2024/01/14 06:20:48;;;;;;;50.53;23.07;;;1.60;99.90;;;;;;5095552;28;20623;-83
2024/01/14 06:23:13;;;;;;;46.33;22.90;;;1.60;99.90;;;;;;5095119;28;20627;-82
2024/01/14 06:25:39;;;;;;;49.03;21.90;;;1.70;99.90;;;;;;5093699;28;20213;-83
2024/01/14 06:28:07;;;;;;;47.87;23.07;;;1.60;99.90;;;;;;5095807;28;20199;-83
2024/01/14 06:30:33;;;;;;;47.57;21.73;;;1.70;99.90;;;;;;5095495;28;20220;-82
2024/01/14 06:32:59;;;;;;;50.97;22.13;;;1.70;99.90;;;;;;5093901;28;20212;-84
2024/01/14 06:35:25;;;;;;;51.67;22.80;;;1.70;99.90;;;;;;5093935;28;20622;-83
2024/01/14 06:37:50;;;;;;;50.40;22.27;;;1.70;99.90;;;;;;5093473;28;20224;-83
2024/01/14 06:40:16;;;;;;;47.07;21.07;;;1.60;99.90;;;;;;5095083;28;20170;-85
2024/01/14 06:42:42;;;;;;;51.43;22.23;;;1.50;99.90;;;;;;5094869;28;20167;-83
2024/01/14 06:45:08;;;;;;;49.30;21.70;;;1.50;99.90;;;;;;5094545;28;20209;-84
2024/01/14 06:47:34;;;;;;;48.77;22.33;;;1.60;99.90;;;;;;5093128;28;20645;-82
2024/01/14 06:50:00;;;;;;;50.70;22.87;;;1.70;99.90;;;;;;5094824;28;20225;-83
2024/01/14 06:52:25;;;;;;;48.57;21.53;;;1.70;99.90;;;;;;5094338;28;20208;-83
2024/01/14 06:54:51;;;;;;;49.63;22.17;;;1.60;99.90;;;;;;5093827;28;20199;-84
2024/01/14 06:57:17;;;;;;;52.43;21.33;;;1.60;99.90;;;;;;5094579;28;20227;-84
2024/01/14 06:59:44;;;;;;;48.60;22.40;;;1.70;99.90;;;;;;5094795;28;20175;-83
2024/01/14 07:02:11;;;;;;;48.27;23.23;;;1.70;99.90;;;;;;5094435;28;20183;-84
2024/01/14 07:04:36;;;;;;;47.43;21.67;;;1.70;99.90;;;;;;5093435;28;20172;-85
2024/01/14 07:07:02;;;;;;;49.07;22.37;;;1.70;99.90;;;;;;5092789;28;20187;-84
2024/01/14 07:09:28;;;;;;;47.60;21.73;;;1.70;99.90;;;;;;5094546;28;20175;-84
2024/01/14 07:11:53;;;;;;;51.03;23.23;;;1.70;99.90;;;;;;5093959;28;20195;-85
2024/01/14 07:14:19;;;;;;;47.83;22.07;;;1.60;99.90;;;;;;5093913;28;20251;-85
2024/01/14 07:16:44;;;;;;;49.67;23.13;;;1.60;99.90;;;;;;5094345;28;20168;-85
2024/01/14 07:19:10;;;;;;;51.00;22.50;;;1.60;99.90;;;;;;5094340;28;20171;-84
2024/01/14 07:21:35;;;;;;;53.97;22.83;;;1.60;99.90;;;;;;5093307;28;20211;-84
2024/01/14 07:24:01;;;;;;;46.87;21.87;;;1.60;99.90;;;;;;5093263;28;20229;-88
2024/01/14 07:26:26;;;;;;;46.67;22.00;;;1.60;99.90;;;;;;5093761;28;20627;-84
2024/01/14 07:28:52;;;;;;;47.83;22.43;;;1.60;99.90;;;;;;5093721;28;20261;-84
2024/01/14 07:31:21;;;;;;;50.30;22.80;;;1.60;99.90;;;;;;5093192;28;20225;-84
2024/01/14 07:34:06;;;;;;;51.33;22.20;;;1.60;99.90;;;;;;5094175;28;20198;-86
2024/01/14 07:36:32;;;;;;;51.63;22.23;;;1.50;99.90;;;;;;5093676;28;20172;-85
2024/01/14 07:38:58;;;;;;;48.00;20.97;;;1.60;99.90;;;;;;5093751;28;20179;-84
2024/01/14 07:41:24;;;;;;;51.57;22.40;;;1.60;99.90;;;;;;5094983;28;20274;-84
2024/01/14 07:43:50;;;;;;;49.07;22.50;;;1.60;99.90;;;;;;5096273;28;20171;-85
2024/01/14 07:46:15;;;;;;;47.87;22.27;;;1.50;99.90;;;;;;5094263;28;20175;-84
2024/01/14 07:48:42;;;;;;;43.67;19.77;;;1.50;99.90;;;;;;5093486;28;20578;-85
2024/01/14 07:51:07;;;;;;;43.60;21.37;;;1.50;99.90;;;;;;5092387;28;20543;-85
2024/01/14 07:53:33;;;;;;;45.37;21.50;;;1.60;99.90;;;;;;5092549;28;20216;-85
2024/01/14 07:56:00;;;;;;;43.53;21.37;;;1.60;99.90;;;;;;5093376;28;20309;-83
2024/01/14 07:58:25;;;;;;;47.43;22.30;;;1.60;99.90;;;;;;5092556;28;20178;-84
2024/01/14 08:00:51;;;;;;;46.67;21.23;;;1.60;99.90;;;;;;5093680;28;20199;-85
2024/01/14 08:03:17;;;;;;;51.20;22.30;;;1.50;99.90;;;;;;5093485;28;20167;-86
2024/01/14 08:05:42;;;;;;;45.33;21.53;;;1.50;99.90;;;;;;5092419;28;20317;-84
2024/01/14 08:08:08;;;;;;;47.63;21.77;;;1.50;99.90;;;;;;5092823;28;20183;-84
2024/01/14 08:10:34;;;;;;;48.47;20.13;;;1.60;99.90;;;;;;5093945;28;20178;-86
2024/01/14 08:13:00;;;;;;;49.27;21.37;;;1.60;99.90;;;;;;5093408;28;20203;-85
2024/01/14 08:15:26;;;;;;;51.37;22.13;;;1.50;99.90;;;;;;5093569;28;20171;-85
2024/01/14 08:17:51;;;;;;;47.07;21.97;;;1.50;99.90;;;;;;5093433;28;20163;-86
2024/01/14 08:20:17;;;;;;;42.77;20.33;;;1.50;99.90;;;;;;5092063;28;20232;-83
2024/01/14 08:22:42;;;;;;;47.83;21.40;;;1.50;99.90;;;;;;5092218;28;20630;-85
2024/01/14 08:25:09;;;;;;;44.87;18.33;;;1.60;99.90;;;;;;5093290;28;20199;-86
2024/01/14 08:27:35;;;;;;;43.20;20.83;;;1.50;99.90;;;;;;5094130;28;20171;-86
2024/01/14 08:30:01;;;;;;;44.80;19.27;;;1.40;99.90;;;;;;5093506;28;20231;-85
2024/01/14 08:32:27;;;;;;;45.43;20.70;;;1.40;99.90;;;;;;5093209;28;20210;-84
2024/01/14 08:34:53;;;;;;;42.83;19.47;;;1.50;99.90;;;;;;5093376;28;20221;-84
2024/01/14 08:37:18;;;;;;;50.27;20.60;;;1.60;99.90;;;;;;5093242;28;20164;-84
2024/01/14 08:39:44;;;;;;;44.07;20.83;;;1.60;99.90;;;;;;5093069;28;20172;-84
2024/01/14 08:42:09;;;;;;;44.00;19.43;;;1.70;99.90;;;;;;5093426;28;20226;-85
2024/01/14 08:44:35;;;;;;;44.47;21.33;;;1.70;99.90;;;;;;5093514;28;20257;-85
2024/01/14 08:47:01;;;;;;;45.03;19.23;;;1.80;99.90;;;;;;5093366;28;20183;-85
2024/01/14 08:49:29;;;;;;;47.17;20.20;;;1.90;99.90;;;;;;5092516;28;20221;-87
2024/01/14 08:51:56;;;;;;;46.50;19.30;;;1.70;99.90;;;;;;5093076;28;20206;-85
2024/01/14 08:54:22;;;;;;;43.77;19.30;;;1.70;99.90;;;;;;5093187;28;20270;-84
2024/01/14 08:56:47;;;;;;;40.40;18.73;;;1.70;99.90;;;;;;5092831;28;20172;-83
2024/01/14 08:59:13;;;;;;;42.87;17.23;;;1.70;99.90;;;;;;5092897;28;20225;-85
2024/01/14 09:01:38;;;;;;;45.30;19.97;;;1.60;99.90;;;;;;5092665;28;20256;-84
2024/01/14 09:04:23;;;;;;;42.73;20.13;;;1.60;99.90;;;;;;5092485;28;20241;-84
2024/01/14 09:06:49;;;;;;;46.40;20.40;;;1.70;99.90;;;;;;5092415;28;20172;-84
2024/01/14 09:09:15;;;;;;;40.83;19.53;;;1.70;99.90;;;;;;5092822;28;20664;-84
2024/01/14 09:11:41;;;;;;;43.80;20.17;;;1.80;99.90;;;;;;5092515;28;20179;-84
2024/01/14 09:14:06;;;;;;;39.63;19.57;;;1.80;99.90;;;;;;5093352;28;20290;-84
2024/01/14 09:16:32;;;;;;;41.83;20.53;;;1.70;99.90;;;;;;5093454;28;20203;-85
2024/01/14 09:18:58;;;;;;;40.20;19.40;;;1.80;99.90;;;;;;5095092;28;20494;-83
2024/01/14 09:21:25;;;;;;;42.27;20.33;;;1.70;99.90;;;;;;5095414;28;20167;-83
2024/01/14 09:23:50;;;;;;;39.20;19.03;;;1.80;99.90;;;;;;5096505;28;20164;-83
2024/01/14 09:26:16;;;;;;;37.30;18.40;;;1.90;99.90;;;;;;5096191;28;20320;-83
2024/01/14 09:28:41;;;;;;;39.87;19.23;;;1.90;99.90;;;;;;5096103;28;20227;-84
2024/01/14 09:31:07;;;;;;;37.53;18.70;;;1.80;99.90;;;;;;5096149;28;20178;-83
2024/01/14 09:33:33;;;;;;;39.97;18.63;;;2.00;99.90;;;;;;5096274;28;20663;-85
2024/01/14 09:36:09;;;;;;;38.30;18.90;;;2.00;99.90;;;;;;5096000;28;20650;-84
2024/01/14 09:38:35;;;;;;;36.03;17.87;;;2.00;99.90;;;;;;5095907;28;20266;-83
2024/01/14 09:41:26;;;;;;;33.90;16.90;;;2.00;99.90;;;;;;5094908;28;20537;-82
2024/01/14 09:43:52;;;;;;;35.50;17.47;;;2.00;99.90;;;;;;5057245;28;20229;-81
2024/01/14 09:46:18;;;;;;;32.47;17.57;;;2.00;99.90;;;;;;5094679;28;20168;-83
2024/01/14 09:48:47;;;;;;;38.87;18.33;;;2.00;99.90;;;;;;5095624;28;20160;-83
2024/01/14 09:51:15;;;;;;;33.27;17.33;;;2.00;99.90;;;;;;5095749;28;20221;-82
2024/01/14 09:53:43;;;;;;;36.80;17.60;;;2.20;99.90;;;;;;5094208;28;20253;-83
2024/01/14 09:56:10;;;;;;;35.00;16.53;;;2.20;99.90;;;;;;5095655;28;20207;-83
2024/01/14 09:58:39;;;;;;;33.00;17.33;;;2.10;99.90;;;;;;5094141;28;20175;-84
2024/01/14 10:01:07;;;;;;;32.87;16.63;;;2.10;99.90;;;;;;5095270;28;20592;-84
2024/01/14 10:03:33;;;;;;;28.63;14.90;;;2.10;99.90;;;;;;5095491;28;20175;-83
2024/01/14 10:06:00;;;;;;;30.10;16.53;;;2.10;99.90;;;;;;5095254;28;20309;-82
2024/01/14 10:08:25;;;;;;;28.27;14.67;;;2.20;99.90;;;;;;5095500;28;20191;-83
2024/01/14 10:10:52;;;;;;;30.47;15.23;;;2.10;99.90;;;;;;5095202;28;20169;-83
2024/01/14 10:13:21;;;;;;;24.87;12.20;;;2.20;99.90;;;;;;5094966;28;20576;-84
2024/01/14 10:15:50;;;;;;;28.60;15.70;;;2.10;99.90;;;;;;5094124;28;20178;-84
2024/01/14 10:18:16;;;;;;;28.20;14.93;;;2.20;99.90;;;;;;5094269;28;20183;-83
2024/01/14 10:20:42;;;;;;;28.27;15.47;;;2.10;99.90;;;;;;5093453;28;20200;-83
2024/01/14 10:23:07;;;;;;;26.80;14.67;;;2.20;99.90;;;;;;5094962;28;20199;-84
2024/01/14 10:25:33;;;;;;;27.27;14.13;;;2.40;99.90;;;;;;5093361;28;20198;-83
2024/01/14 10:28:05;;;;;;;24.10;13.40;;;2.30;99.90;;;;;;5095151;28;20686;-84
2024/01/14 10:30:30;;;;;;;28.33;15.33;;;2.10;99.90;;;;;;5093400;28;20219;-82
2024/01/14 10:32:56;;;;;;;25.93;13.73;;;2.20;99.90;;;;;;5093745;28;20257;-83
2024/01/14 10:35:24;;;;;;;28.50;14.40;;;2.10;99.90;;;;;;5093919;28;20166;-83
2024/01/14 10:37:50;;;;;;;28.93;15.27;;;2.20;99.90;;;;;;5094830;28;20724;-83
2024/01/14 10:40:17;;;;;;;27.23;15.47;;;2.20;99.90;;;;;;5094686;28;20172;-83
2024/01/14 10:42:42;;;;;;;28.13;15.73;;;2.30;99.90;;;;;;5094853;28;20245;-83
2024/01/14 10:45:08;;;;;;;28.00;15.07;;;2.40;99.90;;;;;;5094298;28;20627;-82
2024/01/14 10:47:34;;;;;;;28.37;14.83;;;2.60;99.90;;;;;;5094819;28;20168;-81
2024/01/14 10:50:03;;;;;;;27.87;15.23;;;2.40;99.90;;;;;;5093069;28;20205;-82
2024/01/14 10:52:36;;;;;;;29.33;15.87;;;2.40;99.90;;;;;;5094418;28;20204;-83
2024/01/14 10:55:18;;;;;;;31.40;16.20;;;2.40;99.90;;;;;;5094973;28;20178;-82
2024/01/14 10:57:44;;;;;;;31.03;15.80;;;2.50;99.90;;;;;;5094157;28;20179;-83
2024/01/14 11:00:14;;;;;;;26.70;14.73;;;2.50;99.90;;;;;;5092401;28;20224;-83
2024/01/14 11:02:40;;;;;;;28.27;15.63;;;2.40;99.90;;;;;;5094253;28;20235;-84
2024/01/14 11:05:07;;;;;;;30.13;16.33;;;2.40;99.90;;;;;;5094426;28;20190;-82
2024/01/14 11:07:35;;;;;;;28.07;15.83;;;2.40;99.90;;;;;;5094071;28;20213;-83
2024/01/14 11:10:02;;;;;;;33.17;16.23;;;2.40;99.90;;;;;;5094157;28;20172;-82
2024/01/14 11:12:38;;;;;;;32.13;16.90;;;2.50;99.90;;;;;;5092668;28;20204;-83
2024/01/14 11:15:16;;;;;;;32.10;16.57;;;2.60;99.90;;;;;;5092570;28;20705;-81
2024/01/14 11:17:56;;;;;;;31.60;15.53;;;2.80;99.90;;;;;;5094394;28;20171;-82
2024/01/14 11:20:27;;;;;;;27.50;15.47;;;2.70;99.90;;;;;;5092781;28;20180;-83
2024/01/14 11:22:53;;;;;;;32.83;15.93;;;2.60;99.90;;;;;;5093946;28;20635;-81
2024/01/14 11:25:22;;;;;;;31.07;16.07;;;2.70;99.90;;;;;;5094797;28;20182;-81
2024/01/14 11:27:48;;;;;;;33.33;17.30;;;2.60;99.90;;;;;;5093617;28;20655;-81
2024/01/14 11:30:18;;;;;;;27.70;15.63;;;2.60;99.90;;;;;;5093889;28;20211;-82
2024/01/14 11:32:44;;;;;;;30.13;15.20;;;2.50;99.90;;;;;;5092822;28;20225;-83
2024/01/14 11:35:11;;;;;;;26.90;15.17;;;2.50;99.90;;;;;;5093884;28;20176;-82
2024/01/14 11:37:38;;;;;;;30.17;15.93;;;2.50;99.90;;;;;;5093937;28;20171;-80
2024/01/14 11:40:09;;;;;;;29.63;16.17;;;2.50;99.90;;;;;;5093326;28;20255;-83
2024/01/14 11:42:46;;;;;;;27.33;15.33;;;2.60;99.90;;;;;;5093586;28;20234;-81
2024/01/14 11:45:13;;;;;;;29.10;15.93;;;2.70;99.90;;;;;;5093575;28;20232;-81
2024/01/14 11:47:43;;;;;;;32.77;17.80;;;2.70;99.90;;;;;;5093652;28;20169;-82
2024/01/14 11:50:10;;;;;;;28.80;15.30;;;2.60;99.90;;;;;;5093538;28;20158;-82
2024/01/14 11:52:38;;;;;;;31.10;16.70;;;2.50;99.90;;;;;;5093549;28;20588;-80
2024/01/14 11:55:07;;;;;;;30.07;16.43;;;2.50;99.90;;;;;;5092309;28;20235;-82
2024/01/14 11:57:32;;;;;;;29.00;16.17;;;2.50;99.90;;;;;;5093313;28;20206;-82
2024/01/14 11:59:58;;;;;;;33.20;16.90;;;2.40;99.90;;;;;;5092965;28;20161;-81
2024/01/14 12:02:24;;;;;;;31.10;16.70;;;2.30;99.90;;;;;;5093471;28;20580;-82
2024/01/14 12:04:51;;;;;;;31.20;16.27;;;2.40;99.90;;;;;;5092023;28;20163;-82
2024/01/14 12:07:21;;;;;;;33.20;18.53;;;2.20;99.90;;;;;;5093776;28;20171;-82
2024/01/14 12:09:55;;;;;;;34.67;17.67;;;2.40;99.90;;;;;;5093391;28;20174;-82
2024/01/14 12:12:26;;;;;;;34.73;18.27;;;2.40;99.90;;;;;;5095596;28;20210;-84
2024/01/14 12:14:52;;;;;;;33.47;16.50;;;2.50;99.90;;;;;;5093771;28;20168;-83
2024/01/14 12:17:18;;;;;;;31.30;16.90;;;2.50;99.90;;;;;;5093646;28;20179;-83
2024/01/14 12:19:54;;;;;;;35.70;17.37;;;2.70;99.90;;;;;;5093298;28;20176;-83
2024/01/14 12:22:20;;;;;;;40.43;20.40;;;2.60;99.90;;;;;;5093095;28;20191;-82
2024/01/14 12:24:45;;;;;;;36.23;18.33;;;2.60;99.90;;;;;;5093216;28;20172;-82
2024/01/14 12:27:11;;;;;;;37.33;19.30;;;2.70;99.90;;;;;;5092203;28;20194;-81
2024/01/14 12:29:37;;;;;;;35.10;18.93;;;2.70;99.90;;;;;;5092725;28;20721;-80
2024/01/14 12:32:05;;;;;;;35.73;19.53;;;2.80;99.90;;;;;;5092370;28;20191;-81